Time;durP1;ratioP1;P1;durP2;ratioP2;P2;SDS_P1;SDS_P2;PMS_P1;PMS_P2;Temp;Humidity;BMP_temperature;BMP_pressure;BME280_temperature;BME280_humidity;BME280_pressure;Samples;Min_cycle;Max_cycle;Signal;HPM_P1;HPM_P2
2022/05/08 00:05:31;;;;;;;2.33;2.13;;;;;;;;;;12485692;28;20390;-82
2022/05/08 00:11:32;;;;;;;2.33;2.20;;;;;;;;;;12468135;28;20497;-82
2022/05/08 00:17:34;;;;;;;2.10;2.00;;;;;;;;;;12484743;28;20050;-82
2022/05/08 00:23:36;;;;;;;2.10;1.60;;;;;;;;;;12502241;28;20060;-82
2022/05/08 00:29:37;;;;;;;1.50;1.40;;;;;;;;;;12485420;28;20033;-82
2022/05/08 00:35:39;;;;;;;1.23;1.13;;;;;;;;;;12501571;28;20045;-82
2022/05/08 00:41:41;;;;;;;1.77;1.67;;;;;;;;;;12483837;28;20508;-82
2022/05/08 00:47:43;;;;;;;1.90;1.80;;;;;;;;;;12483890;28;20068;-82
2022/05/08 00:53:46;;;;;;;1.80;1.70;;;;;;;;;;12487562;28;20044;-82
2022/05/08 00:59:48;;;;;;;1.35;1.25;;;;;;;;;;12496082;28;20045;-82
2022/05/08 01:05:53;;;;;;;1.60;1.50;;;;;;;;;;12469312;28;20038;-82
2022/05/08 01:11:55;;;;;;;1.80;1.70;;;;;;;;;;12466132;28;20389;-82
2022/05/08 01:17:57;;;;;;;1.43;1.33;;;;;;;;;;12500060;28;20057;-82
2022/05/08 01:23:59;;;;;;;2.17;2.05;;;;;;;;;;12482391;28;20052;-82
2022/05/08 01:30:01;;;;;;;3.07;2.87;;;;;;;;;;12466732;28;20064;-82
2022/05/08 01:36:03;;;;;;;2.40;2.20;;;;;;;;;;12481415;28;20060;-83
2022/05/08 01:42:06;;;;;;;2.13;2.03;;;;;;;;;;12497180;28;20036;-83
2022/05/08 01:48:25;;;;;;;1.88;1.70;;;;;;;;;;12497219;28;20041;-83
2022/05/08 01:54:27;;;;;;;1.52;1.42;;;;;;;;;;12497025;28;20484;-83
2022/05/08 02:00:30;;;;;;;1.90;1.80;;;;;;;;;;12482525;28;20034;-82
2022/05/08 02:06:31;;;;;;;;;;;;;;;;;;12481495;28;20040;-82
2022/05/08 02:12:33;;;;;;;1.67;1.50;;;;;;;;;;12479762;28;19916;-82
2022/05/08 02:18:35;;;;;;;1.83;1.73;;;;;;;;;;12479748;28;20058;-82
2022/05/08 02:24:36;;;;;;;2.20;2.00;;;;;;;;;;12481649;28;20056;-82
2022/05/08 02:30:38;;;;;;;1.90;1.80;;;;;;;;;;12501001;28;20477;-82
2022/05/08 02:36:40;;;;;;;1.80;1.70;;;;;;;;;;12500650;28;20041;-82
2022/05/08 02:42:42;;;;;;;2.30;2.10;;;;;;;;;;12465546;28;20386;-82
2022/05/08 02:48:44;;;;;;;2.10;1.90;;;;;;;;;;12465797;28;20079;-82
2022/05/08 02:54:45;;;;;;;2.20;2.00;;;;;;;;;;12480057;28;20029;-82
2022/05/08 03:00:48;;;;;;;2.07;1.93;;;;;;;;;;12497684;28;20038;-82
2022/05/08 03:06:49;;;;;;;2.60;2.40;;;;;;;;;;12463307;28;20049;-82
2022/05/08 03:12:51;;;;;;;2.53;2.33;;;;;;;;;;12462859;28;20040;-82
2022/05/08 03:18:53;;;;;;;2.00;1.90;;;;;;;;;;12463727;28;20495;-82
2022/05/08 03:24:55;;;;;;;2.20;2.00;;;;;;;;;;12497905;28;20367;-82
2022/05/08 03:30:56;;;;;;;2.13;2.00;;;;;;;;;;12471182;28;20048;-82
2022/05/08 03:37:04;;;;;;;1.92;1.42;;;;;;;;;;12506392;28;20045;-82
2022/05/08 03:43:06;;;;;;;1.35;1.25;;;;;;;;;;12506647;28;20486;-82
2022/05/08 03:49:07;;;;;;;1.50;1.40;;;;;;;;;;12489946;28;20041;-82
2022/05/08 03:55:11;;;;;;;1.33;1.23;;;;;;;;;;12505512;28;20222;-82
2022/05/08 04:01:13;;;;;;;1.10;1.10;;;;;;;;;;12486872;28;20160;-82
2022/05/08 04:07:14;;;;;;;1.23;1.23;;;;;;;;;;12487214;28;20041;-82
2022/05/08 04:13:18;;;;;;;0.88;0.88;;;;;;;;;;12503288;28;20037;-82
2022/05/08 04:19:20;;;;;;;1.23;1.00;;;;;;;;;;12504149;28;20057;-82
2022/05/08 04:25:21;;;;;;;0.90;0.90;;;;;;;;;;12470126;28;20030;-82
2022/05/08 04:31:23;;;;;;;1.10;1.00;;;;;;;;;;12486688;28;20501;-82
2022/05/08 04:37:25;;;;;;;1.70;1.30;;;;;;;;;;12470212;28;20040;-82
2022/05/08 04:43:27;;;;;;;1.47;1.37;;;;;;;;;;12488837;28;20060;-82
2022/05/08 04:49:29;;;;;;;2.37;1.73;;;;;;;;;;12470921;28;20049;-83
2022/05/08 04:55:31;;;;;;;2.10;1.90;;;;;;;;;;12494458;28;20029;-82
2022/05/08 05:01:34;;;;;;;2.70;2.30;;;;;;;;;;12486711;28;20474;-82
2022/05/08 05:07:38;;;;;;;3.22;2.50;;;;;;;;;;12498199;28;20042;-82
2022/05/08 05:13:40;;;;;;;2.58;2.20;;;;;;;;;;12511232;28;20045;-82
2022/05/08 05:19:41;;;;;;;2.70;2.50;;;;;;;;;;12496054;28;20072;-82
2022/05/08 05:25:43;;;;;;;2.50;2.30;;;;;;;;;;12498787;28;20033;-82
2022/05/08 05:31:45;;;;;;;4.53;4.07;;;;;;;;;;12512072;28;20049;-82
2022/05/08 05:37:46;;;;;;;3.77;3.47;;;;;;;;;;12476752;28;20482;-82
2022/05/08 05:43:48;;;;;;;3.33;3.10;;;;;;;;;;12492435;28;20510;-82
2022/05/08 05:49:50;;;;;;;2.97;2.77;;;;;;;;;;12488214;28;20394;-82
2022/05/08 05:55:54;;;;;;;4.03;3.20;;;;;;;;;;12467284;28;20482;-82
2022/05/08 06:01:55;;;;;;;3.78;3.47;;;;;;;;;;12481961;28;20119;-82
2022/05/08 06:07:57;;;;;;;3.53;3.30;;;;;;;;;;12463835;28;20052;-82
2022/05/08 06:13:59;;;;;;;3.63;3.42;;;;;;;;;;12500158;28;20124;-82
2022/05/08 06:20:01;;;;;;;4.00;3.70;;;;;;;;;;12466182;28;20061;-82
2022/05/08 06:26:03;;;;;;;4.40;4.10;;;;;;;;;;12466777;28;20033;-82
2022/05/08 06:32:05;;;;;;;3.80;3.50;;;;;;;;;;12508798;28;20060;-82
2022/05/08 06:38:10;;;;;;;4.22;3.92;;;;;;;;;;12491324;28;20100;-81
2022/05/08 06:44:13;;;;;;;3.55;3.22;;;;;;;;;;12470121;28;20030;-82
2022/05/08 06:50:15;;;;;;;4.55;4.15;;;;;;;;;;12473375;28;20052;-82
2022/05/08 06:56:16;;;;;;;4.47;4.10;;;;;;;;;;12486701;28;20033;-82
2022/05/08 07:02:18;;;;;;;5.43;4.20;;;;;;;;;;12485521;28;20509;-82
2022/05/08 07:08:20;;;;;;;3.10;2.90;;;;;;;;;;12490017;28;20051;-82
2022/05/08 07:14:22;;;;;;;3.97;3.67;;;;;;;;;;12506130;28;20037;-82
2022/05/08 07:20:23;;;;;;;4.70;4.40;;;;;;;;;;12473483;28;20049;-83
2022/05/08 07:26:26;;;;;;;4.20;3.90;;;;;;;;;;12492806;28;20041;-83
2022/05/08 07:32:28;;;;;;;4.83;4.43;;;;;;;;;;12491593;28;20103;-82
2022/05/08 07:38:30;;;;;;;4.67;4.37;;;;;;;;;;12487737;28;20804;-83
2022/05/08 07:44:32;;;;;;;5.40;5.00;;;;;;;;;;12502420;28;20034;-83
2022/05/08 07:50:35;;;;;;;4.65;4.32;;;;;;;;;;12508054;28;20315;-81
2022/05/08 07:56:36;;;;;;;5.85;5.35;;;;;;;;;;12489866;28;20041;-81
2022/05/08 08:02:38;;;;;;;4.90;4.38;;;;;;;;;;12497029;28;20025;-81
2022/05/08 08:08:40;;;;;;;4.37;4.07;;;;;;;;;;12506595;28;20056;-81
2022/05/08 08:14:42;;;;;;;4.65;4.25;;;;;;;;;;12501779;28;20268;-82
2022/05/08 08:20:44;;;;;;;4.60;4.20;;;;;;;;;;12483846;28;20537;-82
2022/05/08 08:26:45;;;;;;;4.88;4.55;;;;;;;;;;12482379;28;20272;-82
2022/05/08 08:32:47;;;;;;;4.93;4.40;;;;;;;;;;12482485;28;20044;-82
2022/05/08 08:38:50;;;;;;;5.18;4.68;;;;;;;;;;12487746;28;20041;-83
2022/05/08 08:51:13;;;;;;;6.35;5.63;;;;;;;;;;12498610;28;20418;-81
2022/05/08 08:57:14;;;;;;;6.05;5.55;;;;;;;;;;12499422;28;20125;-81
2022/05/08 09:03:27;;;;;;;5.50;4.70;;;;;;;;;;12481089;28;20501;-81
2022/05/08 09:09:33;;;;;;;4.10;3.80;;;;;;;;;;12480873;28;20769;-82
2022/05/08 09:15:36;;;;;;;5.18;4.78;;;;;;;;;;12468158;28;20037;-81
2022/05/08 09:21:57;;;;;;;4.70;4.25;;;;;;;;;;12481003;28;20053;-82
2022/05/08 09:28:02;;;;;;;4.32;3.95;;;;;;;;;;12481049;28;20044;-82
2022/05/08 09:34:03;;;;;;;4.35;3.88;;;;;;;;;;12480528;28;20141;-81
2022/05/08 09:40:15;;;;;;;5.78;5.28;;;;;;;;;;12463535;28;20359;-82
2022/05/08 09:46:17;;;;;;;6.40;5.90;;;;;;;;;;12498056;28;20044;-81
2022/05/08 09:52:19;;;;;;;6.90;6.30;;;;;;;;;;12501399;28;20049;-81
2022/05/08 09:58:21;;;;;;;;;;;;;;;;;;12485327;28;20053;-82
2022/05/08 10:04:22;;;;;;;4.53;4.22;;;;;;;;;;12467042;28;19917;-82
2022/05/08 10:16:48;;;;;;;4.60;4.18;;;;;;;;;;12480854;28;20064;-81
2022/05/08 10:22:50;;;;;;;4.75;4.35;;;;;;;;;;12479896;28;20060;-82
2022/05/08 10:29:04;;;;;;;5.97;5.47;;;;;;;;;;12490607;28;20401;-82
2022/05/08 10:35:15;;;;;;;6.03;5.53;;;;;;;;;;12495866;28;20041;-81
2022/05/08 10:41:35;;;;;;;7.55;5.82;;;;;;;;;;12494913;28;20041;-83
2022/05/08 10:47:37;;;;;;;5.50;5.10;;;;;;;;;;12477419;28;20479;-82
2022/05/08 10:53:42;;;;;;;6.25;5.75;;;;;;;;;;12460906;28;20041;-82
2022/05/08 10:59:44;;;;;;;5.10;4.70;;;;;;;;;;12460309;28;20398;-82
2022/05/08 11:05:46;;;;;;;5.68;5.18;;;;;;;;;;12494850;28;20033;-82
2022/05/08 11:11:48;;;;;;;5.82;5.32;;;;;;;;;;12494531;28;20041;-82
2022/05/08 11:18:07;;;;;;;5.50;5.00;;;;;;;;;;12493946;28;20054;-82
2022/05/08 11:24:22;;;;;;;6.13;5.72;;;;;;;;;;12493622;28;20037;-82
2022/05/08 11:30:32;;;;;;;4.50;4.10;;;;;;;;;;12475939;28;20494;-82
2022/05/08 11:36:38;;;;;;;4.60;4.20;;;;;;;;;;12494756;28;20041;-82
2022/05/08 11:42:40;;;;;;;3.40;3.20;;;;;;;;;;12493966;28;20060;-82
2022/05/08 11:48:47;;;;;;;4.18;3.83;;;;;;;;;;12462874;28;20041;-81
2022/05/08 11:55:02;;;;;;;4.53;4.13;;;;;;;;;;12486689;28;20040;-81
2022/05/08 12:01:04;;;;;;;4.50;4.20;;;;;;;;;;12484809;28;20037;-82
2022/05/08 12:07:10;;;;;;;4.47;4.10;;;;;;;;;;12467859;28;20045;-82
2022/05/08 12:13:13;;;;;;;5.15;4.75;;;;;;;;;;12483491;28;20386;-82
2022/05/08 12:19:16;;;;;;;5.10;4.60;;;;;;;;;;12483335;28;20049;-83
2022/05/08 12:25:18;;;;;;;3.53;3.33;;;;;;;;;;12500590;28;20378;-83
2022/05/08 12:31:20;;;;;;;3.83;3.53;;;;;;;;;;12482978;28;20046;-82
2022/05/08 12:37:22;;;;;;;4.03;3.72;;;;;;;;;;12482489;28;20042;-82
2022/05/08 12:43:23;;;;;;;;;;;;;;;;;;12482329;28;20504;-82
2022/05/08 12:49:25;;;;;;;4.07;3.80;;;;;;;;;;12483119;28;19921;-81
2022/05/08 12:55:26;;;;;;;4.07;3.70;;;;;;;;;;12501334;28;20040;-82
2022/05/08 13:01:28;;;;;;;4.32;3.85;;;;;;;;;;12481865;28;20035;-82
2022/05/08 13:07:30;;;;;;;;;;;;;;;;;;12499906;28;20051;-82
2022/05/08 13:13:31;;;;;;;3.97;3.67;;;;;;;;;;12480522;28;19909;-82
2022/05/08 13:19:33;;;;;;;;;;;;;;;;;;12499503;28;20061;-83
2022/05/08 13:25:35;;;;;;;3.65;3.15;;;;;;;;;;12463739;28;20357;-83
2022/05/08 13:31:41;;;;;;;;;;;;;;;;;;12463924;28;20041;-83
2022/05/08 13:37:43;;;;;;;3.58;3.28;;;;;;;;;;12464891;28;19909;-83
2022/05/08 13:43:44;;;;;;;;;;;;;;;;;;12480497;28;20033;-82
2022/05/08 13:49:46;;;;;;;3.30;3.10;;;;;;;;;;12501793;28;19921;-83
2022/05/08 13:55:49;;;;;;;;;;;;;;;;;;12470212;28;20493;-83
2022/05/08 14:01:50;;;;;;;3.85;3.55;;;;;;;;;;12473888;28;19920;-83
2022/05/08 14:07:53;;;;;;;3.40;3.13;;;;;;;;;;12467569;28;20044;-83
2022/05/08 14:13:54;;;;;;;2.67;2.47;;;;;;;;;;12463637;28;20037;-82
2022/05/08 14:19:56;;;;;;;3.50;3.17;;;;;;;;;;12485874;28;20061;-82
2022/05/08 14:25:58;;;;;;;;;;;;;;;;;;12500248;28;20030;-83
2022/05/08 14:38:20;;;;;;;3.40;3.10;;;;;;;;;;12477640;28;20208;-83
2022/05/08 14:44:22;;;;;;;3.47;3.25;;;;;;;;;;12461791;28;20037;-83
2022/05/08 14:50:23;;;;;;;2.53;2.33;;;;;;;;;;12496401;28;20046;-83
2022/05/08 14:56:27;;;;;;;2.50;2.30;;;;;;;;;;12497669;28;20037;-81
2022/05/08 15:02:29;;;;;;;2.88;2.45;;;;;;;;;;12479794;28;20040;-83
2022/05/08 15:08:31;;;;;;;3.38;2.65;;;;;;;;;;12477770;28;20379;-83
2022/05/08 15:14:33;;;;;;;2.30;2.20;;;;;;;;;;12494227;28;20048;-83
2022/05/08 15:20:35;;;;;;;2.70;2.50;;;;;;;;;;12477371;28;20509;-83
2022/05/08 15:26:38;;;;;;;3.13;2.40;;;;;;;;;;12485386;28;20033;-84
2022/05/08 15:32:40;;;;;;;2.00;1.90;;;;;;;;;;12503269;28;20041;-83
2022/05/08 15:38:42;;;;;;;2.85;2.40;;;;;;;;;;12503193;28;20041;-84
2022/05/08 15:44:44;;;;;;;1.90;1.80;;;;;;;;;;12484606;28;20044;-83
2022/05/08 15:50:45;;;;;;;2.60;2.40;;;;;;;;;;12485263;28;20046;-83
2022/05/08 15:56:47;;;;;;;2.72;2.40;;;;;;;;;;12503129;28;20041;-82
2022/05/08 16:02:49;;;;;;;2.30;2.20;;;;;;;;;;12485052;28;20034;-83
2022/05/08 16:08:50;;;;;;;2.78;2.58;;;;;;;;;;12467775;28;20045;-83
2022/05/08 16:27:33;;;;;;;2.38;2.17;;;;;;;;;;12500592;28;20040;-83
2022/05/08 16:33:35;;;;;;;2.60;2.40;;;;;;;;;;12465805;28;20037;-83
2022/05/08 16:39:36;;;;;;;2.38;2.08;;;;;;;;;;12485552;28;20038;-83
2022/05/08 16:45:38;;;;;;;3.78;2.65;;;;;;;;;;12482421;28;20036;-82
2022/05/08 16:51:41;;;;;;;;;;;;;;;;;;12471455;28;20046;-83
2022/05/08 16:57:42;;;;;;;;;;;;;;;;;;12499531;28;20262;-84
2022/05/08 17:03:44;;;;;;;2.27;2.07;;;;;;;;;;12482859;28;19916;-83
2022/05/08 17:09:46;;;;;;;4.47;1.80;;;;;;;;;;12498904;28;20490;-83
2022/05/08 17:15:48;;;;;;;;;;;;;;;;;;12465099;28;20034;-83
2022/05/08 17:21:50;;;;;;;2.30;2.10;;;;;;;;;;12498650;28;19917;-83
2022/05/08 17:34:12;;;;;;;2.97;2.63;;;;;;;;;;12481741;28;20402;-83
2022/05/08 17:40:14;;;;;;;3.35;3.00;;;;;;;;;;12481762;28;20038;-84
2022/05/08 17:46:18;;;;;;;2.97;2.63;;;;;;;;;;12465315;28;20038;-83
2022/05/08 17:52:19;;;;;;;2.30;2.10;;;;;;;;;;12498617;28;20049;-83
2022/05/08 17:58:21;;;;;;;2.20;2.00;;;;;;;;;;12498976;28;20037;-83
2022/05/08 18:10:49;;;;;;;2.67;2.47;;;;;;;;;;12496795;28;20505;-83
2022/05/08 18:16:51;;;;;;;3.97;2.60;;;;;;;;;;12478586;28;20049;-83
2022/05/08 18:22:53;;;;;;;2.95;2.75;;;;;;;;;;12478462;28;20060;-82
2022/05/08 18:28:57;;;;;;;2.47;2.30;;;;;;;;;;12496309;28;20052;-82
2022/05/08 18:34:58;;;;;;;4.28;3.25;;;;;;;;;;12479085;28;20038;-82
2022/05/08 18:41:00;;;;;;;3.38;3.08;;;;;;;;;;12496124;28;20036;-83
2022/05/08 18:47:02;;;;;;;3.10;2.40;;;;;;;;;;12477750;28;20052;-83
2022/05/08 18:53:04;;;;;;;2.88;2.55;;;;;;;;;;12478156;28;20292;-83
2022/05/08 18:59:05;;;;;;;;;;;;;;;;;;12484726;28;20034;-83
2022/05/08 19:05:08;;;;;;;2.58;2.38;;;;;;;;;;12505508;28;19909;-82
2022/05/08 19:11:09;;;;;;;2.83;2.30;;;;;;;;;;12489483;28;20041;-84
2022/05/08 19:17:12;;;;;;;2.28;2.03;;;;;;;;;;12488333;28;20442;-83
2022/05/08 19:23:14;;;;;;;2.83;2.55;;;;;;;;;;12495953;28;20030;-82
2022/05/08 19:29:16;;;;;;;3.47;2.53;;;;;;;;;;12471487;28;20041;-82
2022/05/08 19:41:40;;;;;;;2.55;2.35;;;;;;;;;;12507974;28;20045;-84
2022/05/08 19:47:41;;;;;;;2.38;2.10;;;;;;;;;;12474459;28;20477;-83
2022/05/08 19:53:44;;;;;;;2.30;2.10;;;;;;;;;;12489747;28;20053;-83
2022/05/08 19:59:46;;;;;;;2.22;2.03;;;;;;;;;;12506118;28;20398;-83
2022/05/08 20:05:51;;;;;;;2.28;1.98;;;;;;;;;;12486296;28;20038;-83
2022/05/08 20:11:59;;;;;;;2.05;1.95;;;;;;;;;;12467215;28;20033;-84
2022/05/08 20:18:03;;;;;;;2.60;2.40;;;;;;;;;;12501297;28;20053;-83
2022/05/08 20:24:05;;;;;;;2.40;2.20;;;;;;;;;;12482819;28;20044;-83
2022/05/08 20:30:07;;;;;;;3.13;2.25;;;;;;;;;;12488176;28;20501;-82
2022/05/08 20:36:09;;;;;;;2.35;1.95;;;;;;;;;;12508046;28;20029;-83
2022/05/08 20:42:10;;;;;;;2.30;2.10;;;;;;;;;;12490132;28;20033;-83
2022/05/08 20:48:12;;;;;;;3.33;2.73;;;;;;;;;;12508253;28;20299;-82
2022/05/08 20:54:14;;;;;;;3.00;2.80;;;;;;;;;;12475837;28;20037;-83
2022/05/08 21:00:18;;;;;;;;;;;;;;;;;;12496581;28;20038;-83
2022/05/08 21:12:40;;;;;;;3.65;3.30;;;;;;;;;;12510955;28;20037;-82
2022/05/08 21:18:42;;;;;;;3.22;2.92;;;;;;;;;;12476729;28;20068;-82
2022/05/08 21:24:44;;;;;;;2.90;2.57;;;;;;;;;;12496132;28;20025;-83
2022/05/08 21:30:45;;;;;;;2.97;2.73;;;;;;;;;;12515611;28;20048;-83
2022/05/08 21:36:47;;;;;;;3.00;2.70;;;;;;;;;;12514987;28;20033;-83
2022/05/08 21:42:49;;;;;;;3.45;3.13;;;;;;;;;;12512991;28;20025;-83
2022/05/08 21:48:51;;;;;;;3.77;3.40;;;;;;;;;;12492637;28;20049;-82
2022/05/08 21:54:52;;;;;;;2.87;2.67;;;;;;;;;;12488088;28;20041;-83
2022/05/08 22:00:54;;;;;;;3.83;3.53;;;;;;;;;;12506209;28;20018;-82
2022/05/08 22:06:56;;;;;;;3.83;3.50;;;;;;;;;;12472047;28;20295;-82
2022/05/08 22:12:58;;;;;;;3.00;2.80;;;;;;;;;;12475370;28;20049;-82
2022/05/08 22:19:19;;;;;;;;;;;;;;;;;;12491873;28;20065;-82
2022/05/08 22:25:21;;;;;;;2.97;2.78;;;;;;;;;;12474247;28;19916;-84
2022/05/08 22:31:22;;;;;;;3.80;2.90;;;;;;;;;;12470070;28;20048;-82
2022/05/08 22:37:24;;;;;;;3.40;3.10;;;;;;;;;;12461183;28;20063;-82
2022/05/08 22:43:26;;;;;;;4.10;3.70;;;;;;;;;;12495273;28;20025;-82
2022/05/08 22:49:28;;;;;;;3.50;3.20;;;;;;;;;;12475719;28;20049;-82
2022/05/08 22:55:30;;;;;;;2.70;2.50;;;;;;;;;;12490387;28;20385;-82
2022/05/08 23:01:32;;;;;;;2.13;2.03;;;;;;;;;;12473964;28;20037;-82
2022/05/08 23:07:33;;;;;;;2.40;2.20;;;;;;;;;;12491488;28;20398;-82
2022/05/08 23:13:35;;;;;;;2.97;2.77;;;;;;;;;;12472940;28;20641;-83
2022/05/08 23:19:37;;;;;;;4.33;2.97;;;;;;;;;;12507020;28;20502;-83
2022/05/08 23:25:39;;;;;;;2.70;2.50;;;;;;;;;;12505866;28;20393;-83
2022/05/08 23:31:41;;;;;;;2.63;2.42;;;;;;;;;;12485535;28;20052;-83
2022/05/08 23:37:43;;;;;;;3.43;3.13;;;;;;;;;;12487213;28;20406;-83
2022/05/08 23:43:44;;;;;;;2.47;2.27;;;;;;;;;;12487259;28;20037;-83
2022/05/08 23:49:46;;;;;;;2.87;2.67;;;;;;;;;;12495754;28;20053;-83
2022/05/08 23:55:48;;;;;;;2.53;2.33;;;;;;;;;;12515363;28;20029;-83
